createdAt,value
2018-08-17T00:00:38.360Z,77.94
2018-08-17T00:01:38.831Z,79.04
2018-08-17T00:02:39.306Z,74.42
2018-08-17T00:03:39.776Z,72.15
2018-08-17T00:04:40.249Z,71.82
2018-08-17T00:05:40.773Z,68.76
2018-08-17T00:06:41.194Z,69.00
2018-08-17T00:07:41.666Z,63.62
2018-08-17T00:08:42.138Z,65.05
2018-08-17T00:09:42.610Z,62.43
2018-08-17T00:10:43.083Z,59.14
2018-08-17T00:11:43.557Z,58.80
2018-08-17T00:12:44.029Z,60.96
2018-08-17T00:13:44.501Z,60.40
2018-08-17T00:14:45.018Z,61.44
2018-08-17T00:15:45.496Z,63.50
2018-08-17T00:16:45.926Z,68.65
2018-08-17T00:17:46.388Z,68.91
2018-08-17T00:18:46.860Z,72.07
2018-08-17T00:19:47.333Z,73.59
2018-08-17T00:20:47.806Z,73.02
2018-08-17T00:21:48.276Z,73.43
2018-08-17T00:22:48.750Z,73.23
2018-08-17T00:23:49.221Z,72.77
2018-08-17T00:24:49.692Z,71.29
2018-08-17T00:25:50.240Z,69.85
2018-08-17T00:26:50.636Z,70.45
2018-08-17T00:27:51.108Z,68.07
2018-08-17T00:28:51.577Z,65.96
2018-08-17T00:29:52.052Z,66.14
2018-08-17T00:30:52.522Z,69.47
2018-08-17T00:31:52.996Z,67.95
2018-08-17T00:32:53.467Z,67.78
2018-08-17T00:33:53.939Z,66.86
2018-08-17T00:34:54.411Z,66.07
2018-08-17T00:35:54.881Z,67.37
2018-08-17T00:36:55.353Z,67.37
2018-08-17T00:37:55.822Z,68.31
2018-08-17T00:38:56.294Z,67.17
2018-08-17T00:39:56.767Z,66.57
2018-08-17T00:40:57.240Z,68.92
2018-08-17T00:41:57.710Z,68.75
2018-08-17T00:42:58.182Z,69.30
2018-08-17T00:43:58.651Z,67.95
2018-08-17T00:44:59.123Z,68.56
2018-08-17T00:45:59.597Z,70.28
2018-08-17T00:47:00.068Z,73.00
2018-08-17T00:48:00.569Z,73.82
2018-08-17T00:49:01.009Z,75.15
2018-08-17T00:50:01.479Z,73.81
2018-08-17T00:51:01.951Z,73.91
2018-08-17T00:52:02.423Z,73.20
2018-08-17T00:53:02.893Z,71.92
2018-08-17T00:54:03.363Z,74.77
2018-08-17T00:55:03.838Z,75.71
2018-08-17T00:56:04.305Z,78.35
2018-08-17T00:57:04.776Z,79.26
2018-08-17T00:58:05.248Z,74.33
2018-08-17T00:59:05.721Z,75.53
2018-08-17T01:00:06.190Z,74.83
2018-08-17T01:01:06.660Z,75.15
2018-08-17T01:02:07.131Z,75.54
2018-08-17T01:03:07.603Z,74.81
2018-08-17T01:04:08.075Z,73.44
2018-08-17T01:05:08.543Z,73.19
2018-08-17T01:06:09.015Z,74.19
2018-08-17T01:07:09.485Z,74.02
2018-08-17T01:08:09.957Z,71.94
2018-08-17T01:09:10.429Z,72.62
2018-08-17T01:10:10.898Z,74.54
2018-08-17T01:11:11.369Z,73.21
2018-08-17T01:12:11.841Z,72.64
2018-08-17T01:13:12.310Z,72.25
2018-08-17T01:14:12.781Z,72.46
2018-08-17T01:15:13.252Z,72.55
2018-08-17T01:16:13.721Z,74.58
2018-08-17T01:17:14.192Z,76.65
2018-08-17T01:18:14.664Z,82.06
2018-08-17T01:19:15.134Z,85.33
2018-08-17T01:20:15.606Z,85.74
2018-08-17T01:21:16.075Z,87.49
2018-08-17T01:22:16.548Z,88.04
2018-08-17T01:23:17.020Z,88.01
2018-08-17T01:24:17.492Z,89.63
2018-08-17T01:25:17.963Z,90.97
2018-08-17T01:26:18.436Z,91.51
2018-08-17T01:27:18.914Z,92.00
2018-08-17T01:28:19.381Z,92.19
2018-08-17T01:29:19.852Z,92.50
2018-08-17T01:30:20.329Z,92.86
2018-08-17T01:31:20.799Z,93.12
2018-08-17T01:32:21.273Z,93.34
2018-08-17T01:33:21.747Z,93.52
2018-08-17T01:34:22.224Z,93.66
2018-08-17T01:35:22.697Z,93.76
2018-08-17T01:36:23.169Z,93.82
2018-08-17T01:37:23.642Z,93.97
2018-08-17T01:38:24.117Z,94.01
2018-08-17T01:39:24.593Z,94.13
2018-08-17T01:40:25.070Z,94.26
2018-08-17T01:41:25.544Z,94.27
2018-08-17T01:42:26.018Z,94.22
2018-08-17T01:43:26.501Z,94.29
2018-08-17T01:44:26.969Z,94.33
2018-08-17T01:45:27.442Z,94.20
2018-08-17T01:46:27.922Z,94.26
2018-08-17T01:47:28.397Z,94.34
2018-08-17T01:48:28.868Z,94.40
2018-08-17T01:49:29.343Z,94.46
2018-08-17T01:50:29.819Z,94.62
2018-08-17T01:51:30.295Z,94.75
2018-08-17T01:52:30.771Z,94.81
2018-08-17T01:53:31.249Z,94.92
2018-08-17T01:54:31.719Z,95.01
2018-08-17T01:55:32.193Z,95.10
2018-08-17T01:56:32.873Z,95.18
2018-08-17T01:57:33.143Z,95.27
2018-08-17T01:58:33.618Z,95.34
2018-08-17T01:59:34.093Z,95.43
2018-08-17T02:00:34.570Z,95.51
2018-08-17T02:01:35.043Z,95.59
2018-08-17T02:02:35.515Z,95.68
2018-08-17T02:03:35.994Z,95.76
2018-08-17T02:04:36.465Z,95.82
2018-08-17T02:05:36.938Z,95.89
2018-08-17T02:06:37.412Z,95.91
2018-08-17T02:07:37.888Z,95.99
2018-08-17T02:08:38.362Z,96.03
2018-08-17T02:09:38.832Z,96.12
2018-08-17T02:10:39.306Z,96.13
2018-08-17T02:11:39.781Z,96.14
2018-08-17T02:12:40.253Z,96.14
2018-08-17T02:13:40.726Z,96.21
2018-08-17T02:14:41.276Z,96.26
2018-08-17T02:15:41.674Z,96.32
2018-08-17T02:16:42.148Z,96.32
2018-08-17T02:17:42.621Z,96.34
2018-08-17T02:18:43.091Z,96.36
2018-08-17T02:19:43.565Z,96.39
2018-08-17T02:20:44.044Z,96.45
2018-08-17T02:21:44.511Z,96.43
2018-08-17T02:22:44.982Z,96.44
2018-08-17T02:23:45.454Z,96.50
2018-08-17T02:24:45.928Z,96.51
2018-08-17T02:25:46.405Z,96.57
2018-08-17T02:26:46.873Z,96.55
2018-08-17T02:27:47.343Z,96.56
2018-08-17T02:28:47.816Z,96.59
2018-08-17T02:29:48.289Z,96.59
2018-08-17T02:30:48.759Z,96.62
2018-08-17T02:31:49.232Z,96.62
2018-08-17T02:32:49.704Z,96.62
2018-08-17T02:33:50.176Z,96.64
2018-08-17T02:34:50.655Z,96.65
2018-08-17T02:35:51.119Z,96.67
2018-08-17T02:36:51.592Z,96.67
2018-08-17T02:37:52.064Z,96.69
2018-08-17T02:38:52.536Z,96.71
2018-08-17T02:39:53.008Z,96.71
2018-08-17T02:40:53.480Z,96.74
2018-08-17T02:41:53.946Z,96.76
2018-08-17T02:42:54.418Z,96.74
2018-08-17T02:43:54.890Z,96.73
2018-08-17T02:44:55.361Z,96.77
2018-08-17T02:45:55.833Z,96.80
2018-08-17T02:46:56.306Z,96.79
2018-08-17T02:47:56.776Z,96.79
2018-08-17T02:48:57.245Z,96.84
2018-08-17T02:49:57.719Z,96.84
2018-08-17T02:50:58.192Z,96.84
2018-08-17T02:51:58.660Z,96.88
2018-08-17T02:52:59.131Z,96.91
2018-08-17T02:53:59.600Z,96.84
2018-08-17T02:55:00.071Z,96.90
2018-08-17T02:56:00.541Z,96.92
2018-08-17T02:57:01.013Z,96.90
2018-08-17T02:58:01.482Z,96.90
2018-08-17T02:59:01.956Z,96.91
2018-08-17T03:00:02.427Z,96.95
2018-08-17T03:01:02.899Z,96.95
2018-08-17T03:02:03.368Z,96.95
2018-08-17T03:03:03.840Z,96.97
2018-08-17T03:04:04.315Z,97.00
2018-08-17T03:05:04.785Z,97.00
2018-08-17T03:06:05.257Z,97.00
2018-08-17T03:07:05.729Z,97.01
2018-08-17T03:08:06.201Z,97.00
2018-08-17T03:09:06.674Z,97.03
2018-08-17T03:10:07.147Z,97.02
2018-08-17T03:11:07.620Z,97.11
2018-08-17T03:12:08.095Z,97.04
2018-08-17T03:13:08.574Z,97.09
2018-08-17T03:14:09.040Z,97.08
2018-08-17T03:15:09.517Z,97.11
2018-08-17T03:16:09.991Z,97.09
2018-08-17T03:17:10.466Z,97.11
2018-08-17T03:18:10.946Z,97.07
2018-08-17T03:19:11.416Z,97.14
2018-08-17T03:20:11.893Z,97.14
2018-08-17T03:21:12.364Z,97.16
2018-08-17T03:22:12.837Z,97.18
2018-08-17T03:23:13.313Z,97.10
2018-08-17T03:24:13.788Z,97.19
2018-08-17T03:25:14.268Z,97.14
2018-08-17T03:26:14.739Z,97.15
2018-08-17T03:27:15.267Z,97.15
2018-08-17T03:28:15.688Z,97.15
2018-08-17T03:29:16.166Z,97.13
2018-08-17T03:30:16.639Z,97.08
2018-08-17T03:31:17.116Z,97.09
2018-08-17T03:32:17.588Z,97.06
2018-08-17T03:33:18.063Z,97.06
2018-08-17T03:34:18.540Z,97.01
2018-08-17T03:35:19.014Z,96.96
2018-08-17T03:36:19.486Z,96.92
2018-08-17T03:37:20.048Z,96.82
2018-08-17T03:38:20.436Z,96.60
2018-08-17T03:39:20.909Z,96.44
2018-08-17T03:40:21.384Z,96.23
2018-08-17T03:41:21.857Z,96.08
2018-08-17T03:42:22.331Z,95.85
2018-08-17T03:43:22.804Z,95.08
2018-08-17T03:44:23.278Z,94.39
2018-08-17T03:45:23.753Z,94.37
2018-08-17T03:46:24.224Z,94.45
2018-08-17T03:47:24.699Z,94.47
2018-08-17T03:48:25.171Z,94.19
2018-08-17T03:49:25.646Z,93.75
2018-08-17T03:50:26.120Z,93.07
2018-08-17T03:51:26.591Z,92.43
2018-08-17T03:52:27.065Z,92.11
2018-08-17T03:53:27.537Z,91.57
2018-08-17T03:54:28.009Z,90.85
2018-08-17T03:55:28.481Z,90.75
2018-08-17T03:56:28.955Z,90.00
2018-08-17T03:57:29.426Z,88.83
2018-08-17T03:58:29.899Z,88.47
2018-08-17T03:59:30.370Z,88.80
2018-08-17T04:00:30.844Z,87.57
2018-08-17T04:01:31.314Z,86.57
2018-08-17T04:02:31.785Z,87.19
2018-08-17T04:03:32.258Z,87.62
2018-08-17T04:04:32.729Z,87.70
2018-08-17T04:05:33.205Z,88.06
2018-08-17T04:06:33.671Z,88.54
2018-08-17T04:07:34.144Z,88.31
2018-08-17T04:08:34.615Z,88.31
2018-08-17T04:09:35.085Z,89.35
2018-08-17T04:10:35.555Z,89.89
2018-08-17T04:11:36.028Z,88.85
2018-08-17T04:12:36.501Z,87.98
2018-08-17T04:13:36.975Z,88.69
2018-08-17T04:14:37.440Z,89.38
2018-08-17T04:15:37.997Z,89.37
2018-08-17T04:16:38.385Z,88.62
2018-08-17T04:17:38.852Z,88.63
2018-08-17T04:18:39.324Z,88.64
2018-08-17T04:19:39.794Z,88.60
2018-08-17T04:20:40.266Z,88.52
2018-08-17T04:21:40.738Z,88.63
2018-08-17T04:22:41.207Z,89.13
2018-08-17T04:23:41.688Z,89.65
2018-08-17T04:24:42.151Z,89.81
2018-08-17T04:25:42.622Z,90.16
2018-08-17T04:26:43.091Z,90.47
2018-08-17T04:27:43.564Z,90.61
2018-08-17T04:28:44.035Z,90.42
2018-08-17T04:29:44.508Z,90.72
2018-08-17T04:30:44.980Z,91.01
2018-08-17T04:31:45.452Z,91.16
2018-08-17T04:32:45.925Z,91.51
2018-08-17T04:33:46.403Z,91.86
2018-08-17T04:34:46.870Z,92.01
2018-08-17T04:35:47.341Z,92.09
2018-08-17T04:36:47.818Z,91.91
2018-08-17T04:37:48.289Z,91.63
2018-08-17T04:38:48.761Z,91.72
2018-08-17T04:39:49.235Z,92.23
2018-08-17T04:40:49.712Z,92.72
2018-08-17T04:41:50.184Z,93.08
2018-08-17T04:42:50.658Z,93.63
2018-08-17T04:43:51.268Z,93.84
2018-08-17T04:44:51.607Z,93.71
2018-08-17T04:45:52.083Z,93.59
2018-08-17T04:46:52.557Z,93.47
2018-08-17T04:47:53.031Z,93.54
2018-08-17T04:48:53.508Z,93.77
2018-08-17T04:49:53.981Z,93.55
2018-08-17T04:50:54.457Z,92.42
2018-08-17T04:51:54.931Z,91.60
2018-08-17T04:52:55.405Z,91.20
2018-08-17T04:53:55.881Z,91.20
2018-08-17T04:54:56.354Z,89.10
2018-08-17T04:55:56.830Z,88.63
2018-08-17T04:56:57.305Z,88.50
2018-08-17T04:57:57.785Z,88.29
2018-08-17T04:58:58.253Z,88.37
2018-08-17T04:59:58.731Z,88.02
2018-08-17T05:00:59.203Z,88.35
2018-08-17T05:01:59.676Z,88.98
2018-08-17T05:03:00.149Z,89.49
2018-08-17T05:04:00.623Z,88.22
2018-08-17T05:05:01.102Z,87.82
2018-08-17T05:06:01.577Z,87.73
2018-08-17T05:07:02.044Z,87.91
2018-08-17T05:08:02.519Z,88.44
2018-08-17T05:09:03.048Z,87.82
2018-08-17T05:10:03.466Z,87.74
2018-08-17T05:11:03.937Z,87.47
2018-08-17T05:12:04.410Z,86.85
2018-08-17T05:13:04.885Z,85.33
2018-08-17T05:14:05.361Z,85.15
2018-08-17T05:15:05.828Z,85.02
2018-08-17T05:16:06.301Z,85.34
2018-08-17T05:17:06.775Z,85.92
2018-08-17T05:18:07.246Z,86.28
2018-08-17T05:19:07.718Z,86.14
2018-08-17T05:20:08.190Z,86.40
2018-08-17T05:21:08.667Z,86.05
2018-08-17T05:22:09.137Z,86.98
2018-08-17T05:23:09.644Z,87.93
2018-08-17T05:24:10.078Z,87.88
2018-08-17T05:25:10.553Z,86.26
2018-08-17T05:26:11.023Z,84.74
2018-08-17T05:27:11.496Z,84.79
2018-08-17T05:28:11.964Z,84.58
2018-08-17T05:29:12.437Z,84.49
2018-08-17T05:30:12.907Z,85.28
2018-08-17T05:31:13.378Z,84.78
2018-08-17T05:32:13.848Z,85.42
2018-08-17T05:33:14.320Z,85.41
2018-08-17T05:34:14.792Z,83.03
2018-08-17T05:35:15.261Z,83.97
2018-08-17T05:36:15.736Z,84.97
2018-08-17T05:37:16.204Z,84.82
2018-08-17T05:38:16.677Z,84.19
2018-08-17T05:39:17.146Z,85.05
2018-08-17T05:40:17.620Z,84.70
2018-08-17T05:41:18.090Z,83.40
2018-08-17T05:42:18.562Z,83.11
2018-08-17T05:43:19.032Z,83.84
2018-08-17T05:44:19.503Z,81.77
2018-08-17T05:45:19.977Z,80.96
2018-08-17T05:46:20.449Z,82.72
2018-08-17T05:47:20.920Z,84.23
2018-08-17T05:48:21.393Z,82.71
2018-08-17T05:49:21.867Z,79.00
2018-08-17T05:50:22.337Z,81.97
2018-08-17T05:51:22.812Z,79.65
2018-08-17T05:52:23.283Z,79.13
2018-08-17T05:53:23.757Z,79.60
2018-08-17T05:54:24.231Z,79.80
2018-08-17T05:55:24.703Z,78.93
2018-08-17T05:56:25.178Z,78.20
2018-08-17T05:57:25.653Z,78.31
2018-08-17T05:58:26.130Z,78.31
2018-08-17T05:59:26.601Z,78.14
2018-08-17T06:00:27.078Z,78.29
2018-08-17T06:01:27.552Z,80.06
2018-08-17T06:02:28.024Z,80.73
2018-08-17T06:03:28.503Z,81.50
2018-08-17T06:04:28.977Z,82.25
2018-08-17T06:05:29.452Z,81.12
2018-08-17T06:06:29.931Z,81.34
2018-08-17T06:07:30.403Z,81.27
2018-08-17T06:08:30.877Z,82.27
2018-08-17T06:09:31.353Z,82.29
2018-08-17T06:10:31.829Z,81.82
2018-08-17T06:11:32.337Z,82.87
2018-08-17T06:12:32.778Z,84.22
2018-08-17T06:13:33.254Z,85.50
2018-08-17T06:14:33.729Z,85.70
2018-08-17T06:15:34.202Z,84.26
2018-08-17T06:16:34.679Z,84.84
2018-08-17T06:17:35.155Z,83.77
2018-08-17T06:18:35.629Z,84.26
2018-08-17T06:19:36.104Z,84.86
2018-08-17T06:20:36.577Z,85.16
2018-08-17T06:21:37.052Z,85.66
2018-08-17T06:22:37.530Z,84.66
2018-08-17T06:23:38.001Z,84.51
2018-08-17T06:24:38.483Z,83.63
2018-08-17T06:25:38.949Z,83.61
2018-08-17T06:26:39.426Z,83.85
2018-08-17T06:27:39.903Z,84.44
2018-08-17T06:28:40.372Z,84.73
2018-08-17T06:29:40.846Z,84.92
2018-08-17T06:30:41.318Z,85.39
2018-08-17T06:31:41.841Z,85.21
2018-08-17T06:32:42.264Z,85.10
2018-08-17T06:33:42.739Z,82.83
2018-08-17T06:34:43.213Z,82.70
2018-08-17T06:35:43.684Z,82.65
2018-08-17T06:36:44.157Z,82.08
2018-08-17T06:37:44.631Z,83.04
2018-08-17T06:38:45.105Z,81.33
2018-08-17T06:39:45.578Z,81.84
2018-08-17T06:40:46.056Z,82.68
2018-08-17T06:41:46.522Z,83.76
2018-08-17T06:42:46.997Z,84.21
2018-08-17T06:43:47.468Z,83.89
2018-08-17T06:44:47.941Z,84.12
2018-08-17T06:45:48.415Z,84.58
2018-08-17T06:46:48.886Z,84.94
2018-08-17T06:47:49.358Z,84.26
2018-08-17T06:48:49.833Z,84.40
2018-08-17T06:49:50.304Z,84.67
2018-08-17T06:50:50.960Z,83.51
2018-08-17T06:51:51.248Z,83.01
2018-08-17T06:52:51.719Z,83.56
2018-08-17T06:53:52.191Z,82.82
2018-08-17T06:54:52.668Z,83.29
2018-08-17T06:55:53.135Z,84.07
2018-08-17T06:56:53.639Z,84.37
2018-08-17T06:57:54.078Z,84.33
2018-08-17T06:58:54.550Z,83.91
2018-08-17T06:59:55.020Z,83.67
2018-08-17T07:00:55.497Z,83.27
2018-08-17T07:01:55.970Z,83.59
2018-08-17T07:02:56.439Z,83.76
2018-08-17T07:03:56.908Z,83.86
2018-08-17T07:04:57.382Z,83.94
2018-08-17T07:05:57.852Z,84.11
2018-08-17T07:06:58.326Z,83.21
2018-08-17T07:07:58.795Z,83.99
2018-08-17T07:08:59.281Z,83.14
2018-08-17T07:09:59.741Z,82.74
2018-08-17T07:11:00.215Z,83.00
2018-08-17T07:12:00.691Z,81.83
2018-08-17T07:13:01.162Z,80.29
2018-08-17T07:14:01.632Z,79.58
2018-08-17T07:15:02.107Z,79.47
2018-08-17T07:16:02.579Z,80.23
2018-08-17T07:17:03.054Z,81.35
2018-08-17T07:18:03.527Z,80.44
2018-08-17T07:19:04.001Z,79.85
2018-08-17T07:20:04.477Z,78.96
2018-08-17T07:21:04.952Z,78.19
2018-08-17T07:22:05.430Z,77.93
2018-08-17T07:23:05.907Z,78.23
2018-08-17T07:24:06.383Z,79.55
2018-08-17T07:25:06.860Z,79.71
2018-08-17T07:26:07.339Z,80.25
2018-08-17T07:27:07.817Z,79.51
2018-08-17T07:28:08.420Z,79.63
2018-08-17T07:29:08.779Z,79.95
2018-08-17T07:30:09.257Z,80.28
2018-08-17T07:31:09.737Z,80.00
2018-08-17T07:32:10.219Z,79.71
2018-08-17T07:33:10.699Z,80.34
2018-08-17T07:34:11.183Z,80.13
2018-08-17T07:35:11.666Z,79.42
2018-08-17T07:36:12.149Z,79.98
2018-08-17T07:37:12.633Z,80.49
2018-08-17T07:38:13.117Z,80.83
2018-08-17T07:39:13.602Z,80.41
2018-08-17T07:40:14.086Z,81.16
2018-08-17T07:41:14.571Z,82.25
2018-08-17T07:42:15.057Z,82.30
2018-08-17T07:43:15.541Z,81.76
2018-08-17T07:44:16.027Z,81.70
2018-08-17T07:45:16.513Z,82.15
2018-08-17T07:46:17.002Z,81.65
2018-08-17T07:47:17.488Z,81.04
2018-08-17T07:48:18.036Z,80.89
2018-08-17T07:49:18.463Z,80.20
2018-08-17T07:50:50.716Z,81.90
2018-08-17T07:51:47.954Z,82.62
2018-08-17T07:52:48.441Z,82.91
2018-08-17T07:53:48.932Z,82.97
2018-08-17T07:54:49.418Z,82.95
2018-08-17T07:55:49.907Z,82.52
2018-08-17T07:56:50.399Z,82.37
2018-08-17T07:57:50.886Z,82.85
2018-08-17T07:58:51.426Z,83.25
2018-08-17T07:59:51.865Z,83.30
2018-08-17T08:00:52.354Z,83.62
2018-08-17T08:01:52.844Z,83.67
2018-08-17T08:02:53.334Z,83.68
2018-08-17T08:03:53.825Z,83.29
2018-08-17T08:04:54.317Z,83.46
2018-08-17T08:05:54.807Z,83.57
2018-08-17T08:06:55.297Z,83.24
2018-08-17T08:07:55.787Z,82.76
2018-08-17T08:08:56.280Z,82.97
2018-08-17T08:09:56.785Z,83.33
2018-08-17T08:10:57.271Z,83.81
2018-08-17T08:11:57.753Z,83.61
2018-08-17T08:12:58.245Z,83.23
2018-08-17T08:13:58.736Z,82.78
2018-08-17T08:14:59.228Z,82.10
2018-08-17T08:15:59.721Z,81.54
2018-08-17T08:17:00.214Z,81.31
2018-08-17T08:18:00.706Z,80.99
2018-08-17T08:19:01.198Z,80.33
2018-08-17T08:20:01.693Z,79.88
2018-08-17T08:21:02.184Z,79.36
2018-08-17T08:22:02.677Z,78.53
2018-08-17T08:23:03.171Z,78.27
2018-08-17T08:24:03.663Z,78.58
2018-08-17T08:25:04.158Z,78.91
2018-08-17T08:26:04.702Z,79.66
2018-08-17T08:27:05.145Z,79.72
2018-08-17T08:28:05.636Z,80.16
2018-08-17T08:29:06.133Z,80.69
2018-08-17T08:30:06.630Z,80.67
2018-08-17T08:31:07.120Z,79.91
2018-08-17T08:32:07.614Z,79.74
2018-08-17T08:33:08.111Z,79.51
2018-08-17T08:34:08.603Z,79.40
2018-08-17T08:35:09.096Z,79.37
2018-08-17T08:36:09.599Z,78.02
2018-08-17T08:37:10.088Z,78.05
2018-08-17T08:38:10.582Z,78.43
2018-08-17T08:39:11.075Z,80.26
2018-08-17T08:40:11.569Z,81.56
2018-08-17T08:41:12.066Z,82.24
2018-08-17T08:42:12.559Z,83.51
2018-08-17T08:43:13.051Z,83.40
2018-08-17T08:44:13.547Z,83.10
2018-08-17T08:45:14.040Z,83.17
2018-08-17T08:46:14.737Z,83.55
2018-08-17T08:47:15.025Z,84.58
2018-08-17T08:48:15.519Z,84.89
2018-08-17T08:49:16.013Z,85.29
2018-08-17T08:50:16.506Z,85.44
2018-08-17T08:51:17.001Z,85.39
2018-08-17T08:52:17.490Z,84.91
2018-08-17T08:53:17.981Z,84.72
2018-08-17T08:54:18.475Z,84.54
2018-08-17T08:55:18.961Z,84.86
2018-08-17T08:56:19.453Z,85.48
2018-08-17T08:57:19.943Z,85.75
2018-08-17T08:58:20.432Z,86.02
2018-08-17T08:59:20.919Z,86.47
2018-08-17T09:00:21.407Z,86.96
2018-08-17T09:01:21.898Z,86.63
2018-08-17T09:02:22.389Z,86.06
2018-08-17T09:03:22.873Z,85.73
2018-08-17T09:04:23.361Z,85.00
2018-08-17T09:05:23.845Z,84.16
2018-08-17T09:06:24.332Z,84.28
2018-08-17T09:07:24.815Z,84.28
2018-08-17T09:08:25.303Z,84.22
2018-08-17T09:09:25.790Z,84.37
2018-08-17T09:10:26.273Z,84.40
2018-08-17T09:11:26.755Z,84.65
2018-08-17T09:12:27.243Z,83.68
2018-08-17T09:13:27.727Z,82.21
2018-08-17T09:14:28.248Z,80.77
2018-08-17T09:15:28.692Z,78.39
2018-08-17T09:16:29.176Z,77.76
2018-08-17T09:17:29.658Z,78.34
2018-08-17T09:18:30.139Z,78.16
2018-08-17T09:19:30.621Z,77.86
2018-08-17T09:20:31.106Z,77.05
2018-08-17T09:21:31.589Z,76.57
2018-08-17T09:22:32.067Z,75.43
2018-08-17T09:23:32.551Z,74.48
2018-08-17T09:24:33.047Z,75.01
2018-08-17T09:25:33.512Z,75.84
2018-08-17T09:26:33.995Z,77.26
2018-08-17T09:27:34.475Z,78.96
2018-08-17T09:28:34.956Z,80.24
2018-08-17T09:29:35.434Z,81.19
2018-08-17T09:30:35.916Z,81.43
2018-08-17T09:31:36.398Z,81.56
2018-08-17T09:32:36.876Z,80.94
2018-08-17T09:33:37.355Z,80.88
2018-08-17T09:34:37.836Z,81.64
2018-08-17T09:35:38.316Z,81.12
2018-08-17T09:36:38.794Z,80.27
2018-08-17T09:37:39.273Z,79.19
2018-08-17T09:38:39.753Z,79.07
2018-08-17T09:39:40.232Z,79.62
2018-08-17T09:40:40.713Z,80.17
2018-08-17T09:41:41.261Z,80.89
2018-08-17T09:42:41.670Z,79.57
2018-08-17T09:43:42.148Z,78.56
2018-08-17T09:44:42.625Z,77.74
2018-08-17T09:45:43.107Z,77.16
2018-08-17T09:46:43.583Z,77.05
2018-08-17T09:47:44.061Z,77.89
2018-08-17T09:48:44.546Z,78.92
2018-08-17T09:49:45.016Z,78.90
2018-08-17T09:50:45.496Z,79.19
2018-08-17T09:51:45.974Z,78.83
2018-08-17T09:52:46.451Z,78.68
2018-08-17T09:53:46.932Z,79.05
2018-08-17T09:54:47.412Z,78.47
2018-08-17T09:55:47.883Z,77.45
2018-08-17T09:56:48.362Z,76.92
2018-08-17T09:57:49.043Z,76.79
2018-08-17T09:58:49.318Z,78.13
2018-08-17T09:59:49.796Z,80.68
2018-08-17T10:00:50.272Z,82.21
2018-08-17T10:01:50.750Z,83.33
2018-08-17T10:02:51.227Z,84.58
2018-08-17T10:03:51.775Z,85.61
2018-08-17T10:04:52.182Z,85.45
2018-08-17T10:05:52.658Z,84.96
2018-08-17T10:06:53.135Z,85.19
2018-08-17T10:07:53.612Z,85.45
2018-08-17T10:08:54.090Z,86.00
2018-08-17T10:09:54.566Z,87.15
2018-08-17T10:10:55.052Z,88.16
2018-08-17T10:11:55.519Z,88.99
2018-08-17T10:12:55.996Z,89.44
2018-08-17T10:13:56.474Z,89.21
2018-08-17T10:14:56.952Z,89.18
2018-08-17T10:15:57.429Z,89.83
2018-08-17T10:16:57.906Z,89.79
2018-08-17T10:17:58.380Z,89.35
2018-08-17T10:18:58.855Z,88.87
2018-08-17T10:19:59.332Z,89.01
2018-08-17T10:21:00.128Z,88.72
2018-08-17T10:22:00.483Z,88.74
2018-08-17T10:23:00.761Z,88.74
2018-08-17T10:24:01.238Z,88.80
2018-08-17T10:25:01.714Z,87.66
2018-08-17T10:26:02.190Z,86.74
2018-08-17T10:27:02.667Z,86.28
2018-08-17T10:28:03.141Z,85.92
2018-08-17T10:30:04.094Z,79.87
2018-08-17T10:31:04.570Z,77.93
2018-08-17T10:32:05.046Z,75.65
2018-08-17T10:33:05.523Z,75.81
2018-08-17T10:34:06.051Z,76.84
2018-08-17T10:35:06.474Z,78.25
2018-08-17T10:36:06.950Z,78.83
2018-08-17T10:37:07.424Z,78.65
2018-08-17T10:38:07.906Z,77.37
2018-08-17T10:39:08.377Z,75.38
2018-08-17T10:40:08.852Z,74.18
2018-08-17T10:41:09.329Z,75.04
2018-08-17T10:42:09.803Z,74.85
2018-08-17T10:43:10.280Z,75.32
2018-08-17T10:44:10.756Z,73.21
2018-08-17T10:45:11.237Z,72.15
2018-08-17T10:46:11.708Z,72.06
2018-08-17T10:47:12.183Z,72.10
2018-08-17T10:48:12.657Z,71.41
2018-08-17T10:49:13.160Z,70.93
2018-08-17T10:50:13.608Z,70.04
2018-08-17T10:51:14.085Z,68.72
2018-08-17T10:52:14.561Z,69.31
2018-08-17T10:53:15.037Z,69.77
2018-08-17T10:54:15.513Z,69.93
2018-08-17T10:55:15.990Z,69.74
2018-08-17T10:56:16.497Z,70.39
2018-08-17T10:57:16.952Z,71.13
2018-08-17T10:58:17.415Z,69.41
2018-08-17T10:59:17.893Z,67.94
2018-08-17T11:00:18.367Z,67.96
2018-08-17T11:01:18.845Z,68.18
2018-08-17T11:02:19.319Z,67.64
2018-08-17T11:03:19.795Z,67.64
2018-08-17T11:04:20.272Z,69.99
2018-08-17T11:05:20.749Z,71.10
2018-08-17T11:06:21.222Z,72.26
2018-08-17T11:07:21.699Z,72.40
2018-08-17T11:08:22.172Z,73.72
2018-08-17T11:09:22.650Z,74.03
2018-08-17T11:10:23.126Z,75.33
2018-08-17T11:11:23.602Z,76.25
2018-08-17T11:12:24.077Z,76.10
2018-08-17T11:13:24.562Z,76.46
2018-08-17T11:14:25.048Z,75.82
2018-08-17T11:15:25.520Z,75.41
2018-08-17T11:16:25.981Z,75.56
2018-08-17T11:17:26.481Z,73.46
2018-08-17T11:18:26.932Z,73.94
2018-08-17T11:19:27.412Z,74.04
2018-08-17T11:20:27.881Z,74.22
2018-08-17T11:21:28.362Z,73.20
2018-08-17T11:22:28.835Z,73.50
2018-08-17T11:23:29.309Z,73.43
2018-08-17T11:24:29.785Z,72.66
2018-08-17T11:25:30.263Z,73.59
2018-08-17T11:26:30.738Z,73.40
2018-08-17T11:27:31.259Z,74.38
2018-08-17T11:28:31.688Z,74.03
2018-08-17T11:29:32.163Z,74.43
2018-08-17T11:30:32.638Z,74.24
2018-08-17T11:31:33.114Z,74.47
2018-08-17T11:32:33.590Z,75.42
2018-08-17T11:33:34.067Z,75.29
2018-08-17T11:34:34.543Z,73.62
2018-08-17T11:35:35.022Z,73.04
2018-08-17T11:36:35.492Z,73.00
2018-08-17T11:37:35.967Z,73.10
2018-08-17T11:38:36.444Z,72.64
2018-08-17T11:39:36.920Z,72.10
2018-08-17T11:40:37.395Z,71.47
2018-08-17T11:41:37.869Z,70.26
2018-08-17T11:42:38.550Z,69.88
2018-08-17T11:43:38.821Z,70.16
2018-08-17T11:44:39.296Z,70.70
2018-08-17T11:45:39.777Z,71.63
2018-08-17T11:46:40.247Z,72.67
2018-08-17T11:47:40.726Z,73.14
2018-08-17T11:48:41.200Z,72.71
2018-08-17T11:49:41.678Z,72.66
2018-08-17T11:50:42.151Z,72.65
2018-08-17T11:51:42.625Z,73.53
2018-08-17T11:52:43.104Z,73.95
2018-08-17T11:53:43.580Z,74.44
2018-08-17T11:54:44.053Z,75.32
2018-08-17T11:55:44.528Z,75.04
2018-08-17T11:56:45.004Z,75.74
2018-08-17T11:57:45.482Z,76.72
2018-08-17T11:58:45.956Z,78.40
2018-08-17T11:59:46.435Z,80.04
2018-08-17T12:00:46.911Z,80.01
2018-08-17T12:01:47.469Z,79.42
2018-08-17T12:02:47.860Z,79.45
2018-08-17T12:03:48.336Z,79.45
2018-08-17T12:04:48.810Z,79.91
2018-08-17T12:05:49.286Z,80.93
2018-08-17T12:06:49.762Z,80.49
2018-08-17T12:07:50.240Z,79.44
2018-08-17T12:08:50.716Z,78.47
2018-08-17T12:09:51.191Z,77.39
2018-08-17T12:10:51.665Z,77.41
2018-08-17T12:11:52.141Z,79.98
2018-08-17T12:12:52.616Z,79.57
2018-08-17T12:13:53.091Z,79.77
2018-08-17T12:14:53.566Z,76.80
2018-08-17T12:15:54.044Z,75.11
2018-08-17T12:16:54.519Z,77.41
2018-08-17T12:17:54.996Z,78.12
2018-08-17T12:18:55.471Z,77.81
2018-08-17T12:19:55.948Z,73.74
2018-08-17T12:20:56.423Z,73.81
2018-08-17T12:21:56.900Z,74.57
2018-08-17T12:22:57.374Z,74.00
2018-08-17T12:23:57.855Z,73.69
2018-08-17T12:24:58.385Z,74.23
2018-08-17T12:25:58.806Z,71.36
2018-08-17T12:26:59.328Z,70.52
2018-08-17T12:27:59.755Z,69.70
2018-08-17T12:29:00.228Z,68.71
2018-08-17T12:30:00.705Z,66.11
2018-08-17T12:31:01.181Z,65.29
2018-08-17T12:32:01.666Z,64.54
2018-08-17T12:33:02.132Z,63.66
2018-08-17T12:34:02.609Z,64.39
2018-08-17T12:35:03.085Z,65.21
2018-08-17T12:36:03.763Z,65.47
2018-08-17T12:37:04.035Z,68.18
2018-08-17T12:38:04.512Z,69.75
2018-08-17T12:39:04.989Z,67.74
2018-08-17T12:40:05.511Z,66.86
2018-08-17T12:41:05.940Z,68.13
2018-08-17T12:42:06.416Z,70.35
2018-08-17T12:43:06.893Z,71.67
2018-08-17T12:44:07.367Z,72.50
2018-08-17T12:45:07.847Z,74.03
2018-08-17T12:46:08.320Z,73.35
2018-08-17T12:47:08.797Z,69.96
2018-08-17T12:48:09.277Z,71.52
2018-08-17T12:49:09.753Z,73.69
2018-08-17T12:50:10.224Z,75.17
2018-08-17T12:51:10.703Z,74.38
2018-08-17T12:52:11.191Z,72.68
2018-08-17T12:53:11.660Z,72.49
2018-08-17T12:54:12.130Z,70.41
2018-08-17T12:55:12.609Z,69.94
2018-08-17T12:56:13.083Z,69.72
2018-08-17T12:57:13.557Z,69.24
2018-08-17T12:58:14.035Z,68.37
2018-08-17T12:59:14.512Z,68.22
2018-08-17T13:00:14.989Z,65.47